Time;durP1;ratioP1;P1;durP2;ratioP2;P2;SDS_P1;SDS_P2;PMS_P1;PMS_P2;Temp;Humidity;BMP_temperature;BMP_pressure;BME280_temperature;BME280_humidity;BME280_pressure;Samples;Min_cycle;Max_cycle;Signal;HPM_P1;HPM_P2
2021/07/17 00:01:20;;;;;;;8.88;5.57;;;;;;;19.35;53.92;102035.16;3567542;40;20043;-74
2021/07/17 00:03:48;;;;;;;10.32;5.82;;;;;;;19.33;53.73;102031.69;3559069;40;20173;-74
2021/07/17 00:06:16;;;;;;;10.45;5.90;;;;;;;19.33;53.45;102022.50;3567110;40;20047;-74
2021/07/17 00:08:44;;;;;;;11.00;5.38;;;;;;;19.31;53.42;102033.75;3568216;40;20061;-74
2021/07/17 00:11:12;;;;;;;10.68;5.68;;;;;;;19.33;53.47;102033.59;3567342;40;20119;-74
2021/07/17 00:13:40;;;;;;;11.88;5.97;;;;;;;19.32;53.64;102029.94;3567307;40;20061;-74
2021/07/17 00:16:08;;;;;;;9.82;5.30;;;;;;;19.31;53.54;102021.78;3558260;40;20390;-74
2021/07/17 00:18:38;;;;;;;8.73;5.30;;;;;;;19.34;53.96;102032.56;3568125;40;20133;-74
2021/07/17 00:21:06;;;;;;;9.77;5.72;;;;;;;19.32;53.72;102037.41;3569645;40;20390;-74
2021/07/17 00:23:34;;;;;;;9.95;6.40;;;;;;;19.32;53.21;102034.63;3567745;40;20088;-74
2021/07/17 00:26:02;;;;;;;11.80;6.20;;;;;;;19.31;53.54;102027.34;3566946;40;20442;-74
2021/07/17 00:28:33;;;;;;;10.50;6.07;;;;;;;19.33;53.93;102026.16;3567732;40;20052;-74
2021/07/17 00:31:01;;;;;;;14.48;6.85;;;;;;;19.29;53.43;102027.50;3558220;40;20037;-74
2021/07/17 00:33:30;;;;;;;11.38;6.07;;;;;;;19.30;53.52;102025.59;3568046;40;20053;-74
2021/07/17 00:35:59;;;;;;;8.98;5.55;;;;;;;19.31;53.54;102030.09;3567231;40;20350;-75
2021/07/17 00:38:27;;;;;;;8.18;5.35;;;;;;;19.29;54.25;102029.38;3567655;40;20139;-74
2021/07/17 00:40:55;;;;;;;9.27;5.70;;;;;;;19.29;54.03;102023.84;3565703;40;20045;-74
2021/07/17 00:43:23;;;;;;;12.27;5.90;;;;;;;19.29;53.96;102026.63;3567147;40;20054;-74
2021/07/17 00:45:51;;;;;;;12.93;5.93;;;;;;;19.28;53.56;102024.88;3566339;40;20045;-74
2021/07/17 00:48:20;;;;;;;9.50;5.53;;;;;;;19.28;53.68;102017.41;3569675;40;20054;-74
2021/07/17 00:50:48;;;;;;;13.40;6.22;;;;;;;19.28;53.26;102022.09;3567234;40;20089;-74
2021/07/17 00:53:17;;;;;;;11.80;6.05;;;;;;;19.28;53.48;102022.09;3567656;40;20057;-74
2021/07/17 00:55:50;;;;;;;9.15;5.75;;;;;;;19.28;54.09;102013.78;3567055;40;20082;-74
2021/07/17 00:58:20;;;;;;;7.60;5.28;;;;;;;19.24;54.08;102009.59;3567885;40;20085;-75
2021/07/17 01:00:50;;;;;;;10.60;6.40;;;;;;;19.26;53.97;102005.63;3566936;40;20116;-74
2021/07/17 01:03:19;;;;;;;8.63;5.72;;;;;;;19.25;54.09;102015.00;3567575;40;20057;-74
2021/07/17 01:05:48;;;;;;;11.15;6.68;;;;;;;19.25;53.47;102014.13;3566800;40;20052;-73
2021/07/17 01:08:18;;;;;;;8.70;5.88;;;;;;;19.28;53.57;102019.31;3567867;40;20053;-74
2021/07/17 01:10:47;;;;;;;10.57;6.32;;;;;;;19.24;54.24;102016.03;3557654;40;20068;-74
2021/07/17 01:13:16;;;;;;;12.82;5.57;;;;;;;19.25;54.30;102019.66;3567923;40;20057;-74
2021/07/17 01:15:44;;;;;;;11.75;6.18;;;;;;;19.24;54.28;102018.78;3568168;40;20065;-75
2021/07/17 01:18:13;;;;;;;10.90;6.30;;;;;;;19.25;53.90;102026.09;3572016;40;20057;-74
2021/07/17 01:20:41;;;;;;;9.02;5.53;;;;;;;19.25;53.80;102028.00;3567107;40;20073;-74
2021/07/17 01:23:11;;;;;;;11.88;6.45;;;;;;;19.26;54.20;102035.28;3567552;40;20061;-75
2021/07/17 01:25:38;;;;;;;10.25;5.78;;;;;;;19.24;53.79;102032.66;3557826;40;20291;-74
2021/07/17 01:28:07;;;;;;;9.98;5.72;;;;;;;19.25;54.33;102031.63;3566030;40;20029;-74
2021/07/17 01:30:38;;;;;;;10.68;6.10;;;;;;;19.27;53.98;102039.78;3555503;40;20045;-72
2021/07/17 01:33:08;;;;;;;13.32;6.35;;;;;;;19.25;53.60;102034.41;3572162;40;20259;-74
2021/07/17 01:35:36;;;;;;;10.25;5.65;;;;;;;19.25;54.27;102039.97;3564392;40;20061;-74
2021/07/17 01:38:05;;;;;;;9.20;5.78;;;;;;;19.24;54.38;102032.66;3567573;40;20225;-74
2021/07/17 01:40:34;;;;;;;11.60;5.80;;;;;;;19.27;54.64;102037.00;3557534;40;20395;-74
2021/07/17 01:43:03;;;;;;;9.15;5.97;;;;;;;19.24;54.68;102040.97;3567617;40;20050;-74
2021/07/17 01:45:35;;;;;;;10.52;5.82;;;;;;;19.25;54.38;102033.53;3566564;40;20681;-75
2021/07/17 01:48:03;;;;;;;10.80;6.78;;;;;;;19.23;54.09;102038.38;3573970;40;20052;-73
2021/07/17 01:50:32;;;;;;;11.48;6.10;;;;;;;19.23;54.22;102038.38;3541308;40;20053;-74
2021/07/17 01:53:00;;;;;;;15.70;6.32;;;;;;;19.23;53.82;102035.59;3563165;40;20085;-74
2021/07/17 01:55:28;;;;;;;11.80;6.35;;;;;;;19.22;54.12;102023.63;3557590;40;20119;-73
2021/07/17 01:57:59;;;;;;;10.10;6.35;;;;;;;19.23;54.27;102028.16;3567174;40;20057;-74
2021/07/17 02:00:28;;;;;;;10.52;6.55;;;;;;;19.21;54.56;102016.31;3566945;40;20683;-75
2021/07/17 02:02:56;;;;;;;10.10;6.50;;;;;;;19.18;54.50;102023.06;3566997;40;20107;-73
2021/07/17 02:05:25;;;;;;;11.60;6.50;;;;;;;19.16;54.23;102025.16;3558063;40;20053;-74
2021/07/17 02:07:54;;;;;;;9.70;6.10;;;;;;;19.17;53.58;102026.91;3549953;40;20128;-73
2021/07/17 02:10:26;;;;;;;11.43;5.78;;;;;;;19.18;53.67;102027.75;3560136;40;20093;-74
2021/07/17 02:13:00;;;;;;;10.10;6.20;;;;;;;19.17;54.50;102031.56;3566941;40;20380;-73
2021/07/17 02:15:30;;;;;;;8.50;5.53;;;;;;;19.15;54.15;102026.19;3566614;40;20358;-74
2021/07/17 02:17:58;;;;;;;9.65;5.93;;;;;;;19.15;54.10;102028.06;3574947;40;20053;-74
2021/07/17 02:23:56;;;;;;;10.82;6.00;;;;;;;19.09;53.89;102023.19;3564064;40;20026;-74
2021/07/17 02:26:24;;;;;;;11.35;6.57;;;;;;;19.09;53.98;102024.06;3566195;40;20040;-74
2021/07/17 02:28:53;;;;;;;12.07;6.72;;;;;;;19.12;54.13;102022.84;3567057;40;20053;-74
2021/07/17 02:31:21;;;;;;;11.02;6.38;;;;;;;19.08;53.78;102030.63;3566422;40;20480;-74
2021/07/17 02:33:49;;;;;;;12.75;6.05;;;;;;;19.07;54.08;102020.56;3567106;40;20053;-74
2021/07/17 02:36:17;;;;;;;9.95;5.38;;;;;;;19.08;53.82;102026.97;3566291;40;20047;-74
2021/07/17 02:38:45;;;;;;;10.73;5.72;;;;;;;19.07;53.55;102022.47;3559100;40;20057;-74
2021/07/17 02:41:13;;;;;;;10.48;6.10;;;;;;;19.06;54.26;102013.25;3568354;40;20060;-74
2021/07/17 02:43:41;;;;;;;11.20;5.63;;;;;;;19.06;53.89;102013.25;3568771;40;20421;-74
2021/07/17 02:46:10;;;;;;;11.02;6.30;;;;;;;19.06;54.20;102015.16;3570780;40;20134;-74
2021/07/17 02:48:38;;;;;;;10.32;6.15;;;;;;;19.04;54.04;102015.31;3575007;40;20049;-73
2021/07/17 02:51:06;;;;;;;11.00;6.13;;;;;;;19.02;54.13;102017.38;3561841;40;20049;-74
2021/07/17 02:53:35;;;;;;;12.30;6.80;;;;;;;19.01;53.66;102014.78;3566181;40;20076;-74
2021/07/17 02:56:03;;;;;;;12.30;6.38;;;;;;;19.01;53.88;102026.75;3567568;40;20119;-74
2021/07/17 02:58:31;;;;;;;9.38;6.15;;;;;;;19.01;54.00;102031.44;3559391;40;20045;-74
2021/07/17 03:00:59;;;;;;;10.95;5.88;;;;;;;18.99;53.92;102031.56;3567732;40;20058;-74
2021/07/17 03:03:29;;;;;;;11.52;6.18;;;;;;;18.99;53.65;102034.34;3568221;40;20049;-74
2021/07/17 03:05:57;;;;;;;9.43;6.00;;;;;;;18.97;54.28;102033.63;3567597;40;20040;-74
2021/07/17 03:08:25;;;;;;;12.13;6.43;;;;;;;18.97;53.29;102032.75;3569265;40;20060;-74
2021/07/17 03:10:54;;;;;;;11.85;6.03;;;;;;;18.97;53.46;102030.00;3568416;40;20034;-78
2021/07/17 03:13:22;;;;;;;16.58;7.13;;;;;;;18.96;53.12;102028.25;3569402;40;20131;-74
2021/07/17 03:15:51;;;;;;;10.15;6.45;;;;;;;18.95;53.33;102026.50;3560155;40;20069;-74
2021/07/17 03:18:19;;;;;;;8.80;6.10;;;;;;;18.94;53.53;102033.94;3575733;40;20057;-74
2021/07/17 03:20:49;;;;;;;12.95;6.82;;;;;;;18.95;53.77;102024.59;3555266;40;20067;-74
2021/07/17 03:23:17;;;;;;;10.55;6.38;;;;;;;18.92;53.91;102024.94;3559433;40;20406;-74
2021/07/17 03:25:45;;;;;;;11.63;6.20;;;;;;;18.92;54.01;102015.75;3567451;40;20049;-74
2021/07/17 03:28:13;;;;;;;10.52;6.15;;;;;;;18.91;53.29;102019.53;3566837;40;20053;-74
2021/07/17 03:30:41;;;;;;;10.48;6.30;;;;;;;18.90;54.01;102017.78;3557578;40;20061;-74
2021/07/17 03:33:09;;;;;;;12.85;7.13;;;;;;;18.89;53.47;102022.47;3568068;40;20425;-74
2021/07/17 03:35:37;;;;;;;9.18;6.20;;;;;;;18.87;53.96;102021.75;3567557;40;20053;-74
2021/07/17 03:38:06;;;;;;;10.50;6.15;;;;;;;18.90;54.46;102020.56;3568339;40;20330;-73
2021/07/17 03:40:34;;;;;;;15.27;7.18;;;;;;;18.87;53.82;102031.97;3567479;40;20143;-74
2021/07/17 03:43:03;;;;;;;11.45;6.45;;;;;;;18.87;54.21;102020.88;3568581;40;20045;-74
2021/07/17 03:45:31;;;;;;;12.27;7.05;;;;;;;18.85;53.74;102025.72;3568245;40;20064;-74
2021/07/17 03:47:59;;;;;;;12.52;6.75;;;;;;;18.84;53.98;102022.09;3575228;40;20065;-74
2021/07/17 03:50:30;;;;;;;10.40;6.68;;;;;;;18.82;54.28;102021.38;3567337;40;20070;-73
2021/07/17 03:52:58;;;;;;;10.60;6.53;;;;;;;18.82;54.22;102032.44;3563085;40;20139;-74
2021/07/17 03:55:28;;;;;;;11.23;6.55;;;;;;;18.85;54.42;102025.72;3567951;40;20057;-75
2021/07/17 03:57:57;;;;;;;11.63;6.68;;;;;;;18.83;54.68;102027.78;3567919;40;20135;-73
2021/07/17 04:00:25;;;;;;;10.38;6.78;;;;;;;18.82;55.17;102026.91;3568197;40;20032;-74
2021/07/17 04:02:53;;;;;;;12.15;6.72;;;;;;;18.83;54.11;102031.44;3552069;40;20041;-74
2021/07/17 04:05:21;;;;;;;10.85;6.45;;;;;;;18.83;54.25;102033.31;3568080;40;20053;-74
2021/07/17 04:07:49;;;;;;;12.02;6.80;;;;;;;18.83;54.04;102027.78;3567565;40;20089;-74
2021/07/17 04:10:17;;;;;;;11.23;6.38;;;;;;;18.83;54.58;102020.34;3567639;40;20398;-74
2021/07/17 04:12:47;;;;;;;9.90;6.13;;;;;;;18.85;54.30;102026.59;3567607;40;20041;-74
2021/07/17 04:15:15;;;;;;;11.40;6.45;;;;;;;18.83;54.36;102025.00;3567766;40;20061;-75
2021/07/17 04:17:43;;;;;;;10.40;6.60;;;;;;;18.82;54.16;102029.69;3577080;40;20260;-74
2021/07/17 04:20:12;;;;;;;9.18;6.35;;;;;;;18.84;54.31;102040.63;3568109;40;20049;-74
2021/07/17 04:22:40;;;;;;;13.18;7.30;;;;;;;18.82;54.48;102038.00;3567515;40;20052;-74
2021/07/17 04:25:11;;;;;;;14.00;7.85;;;;;;;18.83;54.09;102036.97;3567816;40;20045;-74
2021/07/17 04:27:40;;;;;;;10.57;6.93;;;;;;;18.83;54.38;102034.19;3567053;40;20076;-74
2021/07/17 04:30:11;;;;;;;10.57;6.82;;;;;;;18.85;53.72;102042.38;3568128;40;20057;-74
2021/07/17 04:32:39;;;;;;;10.13;6.40;;;;;;;18.82;53.95;102032.44;3567578;40;20045;-74
2021/07/17 04:35:09;;;;;;;13.70;8.07;;;;;;;18.83;53.93;102044.41;3564950;40;20065;-74
2021/07/17 04:37:37;;;;;;;14.60;7.90;;;;;;;18.80;53.56;102048.38;3567259;40;20054;-74
2021/07/17 04:40:06;;;;;;;11.82;6.75;;;;;;;18.80;53.90;102042.81;3567826;40;20045;-74
2021/07/17 04:42:34;;;;;;;12.73;7.07;;;;;;;18.77;53.96;102037.56;3557897;40;20042;-75
2021/07/17 04:45:03;;;;;;;13.07;7.80;;;;;;;18.76;54.02;102038.59;3568155;40;20089;-74
2021/07/17 04:47:32;;;;;;;11.93;6.75;;;;;;;18.78;54.10;102036.53;3575915;40;20077;-74
2021/07/17 04:50:02;;;;;;;9.90;6.43;;;;;;;18.76;54.13;102039.47;3568081;40;20045;-74
2021/07/17 04:52:31;;;;;;;9.90;5.95;;;;;;;18.75;53.65;102040.50;3561448;40;20041;-73
2021/07/17 04:54:59;;;;;;;12.32;6.47;;;;;;;18.75;54.52;102034.09;3554134;40;20402;-74
2021/07/17 04:57:27;;;;;;;9.38;5.75;;;;;;;18.75;53.88;102034.97;3557508;40;20484;-74
2021/07/17 05:04:14;;;;;;;8.73;5.68;;;;;;;18.69;54.42;102041.09;3564712;40;20031;-74
2021/07/17 05:06:42;;;;;;;10.40;6.53;;;;;;;18.70;53.95;102040.09;3566920;40;20418;-74
2021/07/17 05:09:10;;;;;;;10.90;5.88;;;;;;;18.72;54.38;102037.16;3567763;40;20056;-74
2021/07/17 05:11:39;;;;;;;11.18;6.15;;;;;;;18.71;54.39;102033.50;3539367;40;20373;-74
2021/07/17 05:14:07;;;;;;;10.88;6.80;;;;;;;18.71;54.19;102036.28;3564322;40;20060;-74
2021/07/17 05:16:35;;;;;;;10.02;6.30;;;;;;;18.72;54.47;102031.63;3557477;40;20512;-74
2021/07/17 05:19:04;;;;;;;11.15;6.30;;;;;;;18.73;54.23;102027.81;3573648;40;20403;-74
2021/07/17 05:21:33;;;;;;;9.98;6.05;;;;;;;18.74;53.97;102027.66;3566328;40;20041;-74
2021/07/17 05:24:01;;;;;;;11.32;6.63;;;;;;;18.72;54.43;102018.63;3562834;40;20046;-74
2021/07/17 05:26:29;;;;;;;9.27;5.38;;;;;;;18.73;54.54;102022.28;3566237;40;20131;-74
2021/07/17 05:28:57;;;;;;;10.07;7.10;;;;;;;18.72;54.26;102026.06;3567394;40;20135;-74
2021/07/17 05:31:25;;;;;;;8.82;5.68;;;;;;;18.72;54.22;102026.06;3566829;40;20045;-74
2021/07/17 05:33:53;;;;;;;9.82;5.75;;;;;;;18.71;54.73;102019.66;3567558;40;20089;-74
2021/07/17 05:36:21;;;;;;;10.65;5.90;;;;;;;18.70;54.21;102028.13;3557443;40;20071;-74
2021/07/17 05:38:51;;;;;;;10.13;6.05;;;;;;;18.72;54.68;102026.06;3567658;40;20065;-74
2021/07/17 05:41:19;;;;;;;10.95;5.65;;;;;;;18.70;54.76;102036.44;3567125;40;20087;-74
2021/07/17 05:43:46;;;;;;;8.88;6.20;;;;;;;18.70;54.48;102033.66;3567444;40;20041;-74
2021/07/17 05:46:14;;;;;;;10.82;6.10;;;;;;;18.69;53.96;102030.03;3560621;40;20042;-74
2021/07/17 05:48:42;;;;;;;11.68;6.88;;;;;;;18.69;54.74;102032.78;3575017;40;20053;-74
2021/07/17 05:51:10;;;;;;;11.43;6.35;;;;;;;18.69;54.37;102043.03;3567156;40;20147;-74
2021/07/17 05:53:38;;;;;;;10.55;6.75;;;;;;;18.68;53.58;102042.16;3566368;40;20084;-74
2021/07/17 05:56:08;;;;;;;10.50;6.18;;;;;;;18.71;54.31;102035.41;3549735;40;20078;-75
2021/07/17 05:58:36;;;;;;;11.07;6.13;;;;;;;18.69;54.43;102038.34;3551753;40;20054;-74
2021/07/17 06:01:04;;;;;;;10.75;6.25;;;;;;;18.68;54.79;102041.28;3564441;40;20396;-74
2021/07/17 06:03:32;;;;;;;12.73;5.97;;;;;;;18.68;54.29;102044.94;3558027;40;20403;-74
2021/07/17 06:06:01;;;;;;;9.75;6.32;;;;;;;18.69;54.27;102049.41;3566294;40;20073;-74
2021/07/17 06:08:29;;;;;;;11.73;6.20;;;;;;;18.70;55.04;102050.28;3567320;40;20049;-74
2021/07/17 06:10:57;;;;;;;10.65;6.00;;;;;;;18.70;54.38;102053.06;3566636;40;20134;-74
2021/07/17 06:13:26;;;;;;;9.85;5.88;;;;;;;18.72;54.18;102056.56;3568711;40;20045;-74
2021/07/17 06:15:54;;;;;;;10.35;6.10;;;;;;;18.70;53.96;102058.59;3569744;40;20048;-73
2021/07/17 06:18:22;;;;;;;10.80;6.63;;;;;;;18.68;54.46;102053.25;3575664;40;20158;-73
2021/07/17 06:20:50;;;;;;;10.80;6.75;;;;;;;18.68;54.71;102050.47;3573164;40;20058;-74
2021/07/17 06:23:18;;;;;;;10.52;6.40;;;;;;;18.67;54.66;102057.03;3568558;40;20397;-75
2021/07/17 06:25:46;;;;;;;11.48;6.40;;;;;;;18.66;54.28;102059.97;3567859;40;20383;-75
2021/07/17 06:28:14;;;;;;;11.85;6.40;;;;;;;18.65;54.62;102066.53;3568322;40;20333;-75
2021/07/17 06:30:43;;;;;;;10.48;6.38;;;;;;;18.65;54.12;102063.75;3565786;40;20146;-75
2021/07/17 06:33:11;;;;;;;9.52;6.13;;;;;;;18.63;54.22;102071.34;3568457;40;20045;-74
2021/07/17 06:35:39;;;;;;;9.48;6.38;;;;;;;18.63;54.73;102069.47;3568037;40;20353;-73
2021/07/17 06:38:07;;;;;;;9.07;6.00;;;;;;;18.64;54.41;102070.34;3568642;40;20410;-73
2021/07/17 06:40:35;;;;;;;9.85;6.30;;;;;;;18.62;55.17;102087.09;3567382;40;20057;-73
2021/07/17 06:43:04;;;;;;;9.82;6.18;;;;;;;18.62;54.80;102080.69;3566727;40;20058;-73
2021/07/17 06:45:32;;;;;;;10.45;5.93;;;;;;;18.61;54.13;102085.38;3554813;40;20053;-73
2021/07/17 06:48:01;;;;;;;9.52;6.18;;;;;;;18.64;53.88;102086.97;3553580;40;20049;-73
2021/07/17 06:50:29;;;;;;;10.52;6.35;;;;;;;18.60;54.25;102080.00;3572196;40;20065;-73
2021/07/17 06:52:57;;;;;;;9.77;6.55;;;;;;;18.59;54.62;102079.13;3568055;40;20138;-73
2021/07/17 06:55:26;;;;;;;10.65;6.55;;;;;;;18.58;54.16;102084.81;3567073;40;20134;-73
2021/07/17 06:57:54;;;;;;;10.25;6.90;;;;;;;18.57;54.71;102081.19;3565541;40;20134;-73
2021/07/17 07:00:22;;;;;;;11.13;6.60;;;;;;;18.56;54.15;102079.44;3567722;40;20045;-73
2021/07/17 07:02:51;;;;;;;11.88;7.10;;;;;;;18.53;54.57;102090.81;3545370;40;20119;-73
2021/07/17 07:05:20;;;;;;;8.98;6.07;;;;;;;18.56;53.97;102098.81;3567917;40;20410;-72
2021/07/17 07:07:48;;;;;;;11.77;6.32;;;;;;;18.52;54.03;102094.63;3567489;40;20041;-75
2021/07/17 07:10:16;;;;;;;8.43;5.90;;;;;;;18.51;54.32;102098.44;3568302;40;20053;-75
2021/07/17 07:12:45;;;;;;;12.23;6.60;;;;;;;18.51;54.08;102098.44;3555662;40;20122;-72
2021/07/17 07:15:15;;;;;;;9.82;6.35;;;;;;;18.50;53.89;102106.88;3564300;40;20053;-73
2021/07/17 07:17:44;;;;;;;10.38;6.43;;;;;;;18.49;54.15;102105.13;3565441;40;20042;-73
2021/07/17 07:20:13;;;;;;;9.45;6.22;;;;;;;18.49;54.64;102108.78;3568515;40;20061;-73
2021/07/17 07:22:43;;;;;;;10.13;6.93;;;;;;;18.50;54.63;102116.06;3563321;40;20393;-73
2021/07/17 07:25:12;;;;;;;11.45;6.13;;;;;;;18.50;54.83;102112.44;3561688;40;20054;-73
2021/07/17 07:27:40;;;;;;;12.57;7.50;;;;;;;18.49;54.01;102125.41;3556359;40;20127;-73
2021/07/17 07:30:08;;;;;;;9.25;6.03;;;;;;;18.52;54.76;102115.94;3552896;40;20388;-73
2021/07/17 07:32:53;;;;;;;11.13;6.30;;;;;;;18.52;54.26;102111.25;3557061;40;20049;-72
2021/07/17 07:35:23;;;;;;;8.48;6.03;;;;;;;18.53;54.21;102115.75;3567728;40;20064;-73
2021/07/17 07:37:54;;;;;;;9.27;5.50;;;;;;;18.53;54.49;102115.75;3553860;40;20142;-72
2021/07/17 07:40:25;;;;;;;8.88;5.20;;;;;;;18.54;54.05;102119.41;3556905;40;20544;-72
2021/07/17 07:42:53;;;;;;;7.70;5.45;;;;;;;18.52;54.55;102114.03;3564606;40;20298;-68
2021/07/17 07:45:22;;;;;;;9.40;5.30;;;;;;;18.52;54.50;102107.63;3566631;40;20071;-68
2021/07/17 07:47:51;;;;;;;8.57;4.95;;;;;;;18.52;54.18;102122.34;3564217;40;20056;-71
2021/07/17 07:50:21;;;;;;;8.45;4.80;;;;;;;18.53;54.42;102117.66;3561307;40;20069;-69
2021/07/17 07:52:50;;;;;;;9.73;5.07;;;;;;;18.54;54.73;102122.16;3561211;40;20745;-71
2021/07/17 07:55:20;;;;;;;7.35;4.88;;;;;;;18.56;54.55;102123.75;3557042;40;20045;-69
2021/07/17 07:57:49;;;;;;;8.20;4.88;;;;;;;18.55;54.83;102122.03;3545377;40;20428;-70
2021/07/17 08:00:18;;;;;;;8.95;5.30;;;;;;;18.58;55.02;102130.03;3555057;40;20069;-69
2021/07/17 08:02:54;;;;;;;8.90;5.25;;;;;;;18.59;54.85;102126.25;3563188;40;20041;-70
2021/07/17 08:05:24;;;;;;;9.63;5.82;;;;;;;18.61;55.24;102123.28;3556212;40;20056;-70
2021/07/17 08:07:53;;;;;;;9.10;5.70;;;;;;;18.63;54.67;102121.25;3562928;40;20045;-70
2021/07/17 08:10:23;;;;;;;9.38;4.88;;;;;;;18.66;54.63;102126.50;3563401;40;20422;-70
2021/07/17 08:12:51;;;;;;;11.13;5.57;;;;;;;18.65;54.45;102131.16;3567228;40;20040;-70
2021/07/17 08:15:20;;;;;;;9.07;5.15;;;;;;;18.68;54.42;102132.75;3567252;40;20057;-70
2021/07/17 08:17:48;;;;;;;10.23;5.35;;;;;;;18.70;54.56;102128.78;3566856;40;20045;-69
2021/07/17 08:20:17;;;;;;;9.32;5.38;;;;;;;18.73;54.34;102125.72;3549438;40;20462;-69
2021/07/17 08:22:45;;;;;;;8.27;5.20;;;;;;;18.75;54.93;102123.66;3545860;40;20091;-70
2021/07/17 08:25:13;;;;;;;7.78;5.32;;;;;;;18.78;55.24;102125.22;3559308;40;20729;-69
2021/07/17 08:27:44;;;;;;;9.77;5.00;;;;;;;18.81;54.97;102123.06;3556540;40;20169;-70
2021/07/17 08:30:13;;;;;;;11.60;5.55;;;;;;;18.84;54.93;102130.22;3567943;40;20057;-70
2021/07/17 08:33:01;;;;;;;10.30;6.05;;;;;;;18.86;54.79;102127.25;3557781;40;20040;-70
2021/07/17 08:35:30;;;;;;;10.05;6.03;;;;;;;18.89;54.82;102135.28;3565746;40;20057;-75
2021/07/17 08:37:59;;;;;;;10.35;5.70;;;;;;;18.92;54.82;102132.19;3563395;40;20038;-74
2021/07/17 08:40:28;;;;;;;9.15;5.53;;;;;;;18.94;55.11;102136.53;3554277;40;20388;-75
2021/07/17 08:42:57;;;;;;;9.43;5.85;;;;;;;18.98;54.94;102137.09;3555084;40;20049;-73
2021/07/17 08:45:26;;;;;;;9.60;5.85;;;;;;;18.98;55.03;102135.22;3561625;40;20429;-73
2021/07/17 08:47:56;;;;;;;9.73;5.50;;;;;;;19.02;55.38;102136.63;3566249;40;20040;-73
2021/07/17 08:50:26;;;;;;;13.48;7.57;;;;;;;19.04;55.28;102136.47;3567337;40;20061;-73
2021/07/17 08:52:58;;;;;;;11.35;7.38;;;;;;;19.05;54.63;102136.31;3563094;40;20056;-73
2021/07/17 08:55:31;;;;;;;10.40;7.00;;;;;;;19.05;54.63;102135.44;3566969;40;20333;-73
2021/07/17 08:58:01;;;;;;;10.55;7.00;;;;;;;19.10;55.48;102141.41;3567167;40;20057;-73
2021/07/17 09:00:34;;;;;;;11.93;7.60;;;;;;;19.12;54.63;102129.09;3567087;40;20049;-73
2021/07/17 09:03:06;;;;;;;9.05;6.70;;;;;;;19.12;54.97;102131.00;3567302;40;20061;-73
2021/07/17 09:05:42;;;;;;;13.63;7.28;;;;;;;19.10;54.13;102122.00;3566854;40;20056;-73
2021/07/17 09:08:11;;;;;;;12.07;7.40;;;;;;;19.11;54.80;102124.59;3567460;40;20053;-73
2021/07/17 09:10:40;;;;;;;12.45;8.07;;;;;;;19.14;54.80;102129.84;3566576;40;20055;-73
2021/07/17 09:13:16;;;;;;;11.88;7.82;;;;;;;19.19;54.36;102121.91;3557982;40;20397;-73
2021/07/17 09:15:56;;;;;;;12.55;7.75;;;;;;;19.21;55.19;102124.50;3562759;40;20059;-74
2021/07/17 09:18:29;;;;;;;11.70;7.53;;;;;;;19.23;54.93;102125.25;3572994;40;20081;-74
2021/07/17 09:21:01;;;;;;;9.73;6.95;;;;;;;19.28;55.37;102127.53;3566691;40;20046;-73
2021/07/17 09:23:32;;;;;;;10.32;6.97;;;;;;;19.33;54.91;102114.94;3566873;40;20046;-73
2021/07/17 09:26:02;;;;;;;10.18;6.78;;;;;;;19.36;54.83;102113.72;3566295;40;20050;-73
2021/07/17 09:28:32;;;;;;;10.70;6.70;;;;;;;19.43;55.39;102112.91;3558766;40;20076;-73
2021/07/17 09:31:01;;;;;;;12.07;8.02;;;;;;;19.47;54.90;102111.59;3566955;40;20324;-73
2021/07/17 09:33:30;;;;;;;11.80;8.43;;;;;;;19.52;55.20;102108.34;3567263;40;20061;-73
2021/07/17 09:35:58;;;;;;;13.25;8.90;;;;;;;19.60;55.04;102105.63;3566213;40;20322;-73
2021/07/17 09:38:32;;;;;;;11.68;7.90;;;;;;;19.68;55.38;102105.69;3557883;40;20094;-73
2021/07/17 09:41:04;;;;;;;10.80;8.27;;;;;;;19.77;55.55;102106.63;3565308;40;20385;-73
2021/07/17 09:43:35;;;;;;;11.48;8.38;;;;;;;19.87;54.70;102115.72;3566408;40;20135;-73
2021/07/17 09:46:20;;;;;;;11.98;8.40;;;;;;;19.95;55.18;102104.69;3558667;40;20370;-73
2021/07/17 09:48:52;;;;;;;10.93;7.32;;;;;;;20.06;55.14;102103.53;3575626;40;20317;-73
2021/07/17 09:51:23;;;;;;;10.80;8.73;;;;;;;20.16;55.25;102109.84;3568245;40;20037;-73
2021/07/17 09:53:52;;;;;;;12.95;8.55;;;;;;;20.24;54.78;102101.59;3568500;40;20041;-73
2021/07/17 09:56:22;;;;;;;13.10;8.98;;;;;;;20.34;54.96;102107.03;3567473;40;20050;-73
2021/07/17 09:58:53;;;;;;;10.43;8.90;;;;;;;20.42;54.10;102105.13;3568477;40;20103;-73
2021/07/17 10:01:24;;;;;;;11.30;9.10;;;;;;;20.49;54.04;102103.44;3567167;40;20045;-73
2021/07/17 10:03:58;;;;;;;10.85;8.52;;;;;;;20.56;53.98;102098.94;3568412;40;20077;-73
2021/07/17 10:06:33;;;;;;;11.02;9.10;;;;;;;20.64;53.32;102109.22;3562824;40;20042;-73
2021/07/17 10:09:03;;;;;;;12.77;9.00;;;;;;;20.72;53.06;102100.03;3568679;40;20367;-73
2021/07/17 10:11:31;;;;;;;11.93;8.30;;;;;;;20.81;53.56;102102.69;3550227;40;20438;-73
2021/07/17 10:14:15;;;;;;;10.05;7.40;;;;;;;20.91;53.20;102091.44;3567479;40;20077;-72
2021/07/17 10:16:45;;;;;;;9.18;6.70;;;;;;;21.00;54.05;102090.38;3566602;40;20185;-73
2021/07/17 10:19:15;;;;;;;8.20;6.05;;;;;;;21.11;53.54;102081.72;3579532;40;20067;-72
2021/07/17 10:21:43;;;;;;;9.07;6.20;;;;;;;21.20;53.37;102088.16;3568235;40;20487;-73
2021/07/17 10:24:12;;;;;;;8.82;5.80;;;;;;;21.31;53.47;102088.72;3558771;40;20046;-73
2021/07/17 10:26:41;;;;;;;7.93;5.68;;;;;;;21.42;53.38;102082.75;3561367;40;20042;-73
2021/07/17 10:29:12;;;;;;;6.82;5.15;;;;;;;21.54;53.09;102085.22;3568831;40;20150;-72
2021/07/17 10:31:42;;;;;;;7.15;4.45;;;;;;;21.61;53.17;102084.38;3567475;40;20115;-72
2021/07/17 10:34:10;;;;;;;8.25;4.70;;;;;;;21.71;52.53;102079.47;3568365;40;20049;-73
2021/07/17 10:36:45;;;;;;;7.03;4.72;;;;;;;21.86;52.06;102079.63;3567070;40;20403;-73
2021/07/17 10:39:15;;;;;;;12.23;4.80;;;;;;;21.92;52.62;102076.13;3568239;40;20049;-73
2021/07/17 10:41:45;;;;;;;6.70;4.00;;;;;;;22.04;52.49;102084.97;3567137;40;20309;-72
2021/07/17 10:44:14;;;;;;;7.03;3.85;;;;;;;22.14;52.38;102083.75;3568252;40;20067;-72
2021/07/17 10:46:44;;;;;;;5.65;3.58;;;;;;;22.24;51.84;102074.31;3569879;40;20033;-72
2021/07/17 10:49:13;;;;;;;5.63;3.92;;;;;;;22.35;52.06;102071.13;3560719;40;20410;-73
2021/07/17 10:51:50;;;;;;;7.68;4.05;;;;;;;22.45;51.45;102077.38;3565489;40;20376;-73
2021/07/17 10:54:30;;;;;;;6.70;3.88;;;;;;;22.58;51.87;102083.22;3561549;40;20310;-73
2021/07/17 10:56:59;;;;;;;7.03;3.90;;;;;;;22.63;51.48;102085.47;3567098;40;20061;-72
2021/07/17 10:59:55;;;;;;;8.05;4.30;;;;;;;22.68;51.21;102071.84;3567675;40;20042;-72
2021/07/17 11:02:24;;;;;;;7.07;4.30;;;;;;;22.79;51.58;102068.66;3564279;40;20081;-73
2021/07/17 11:04:58;;;;;;;6.63;4.05;;;;;;;22.90;50.74;102071.03;3567846;40;20088;-73
2021/07/17 11:07:36;;;;;;;7.13;3.90;;;;;;;22.99;50.28;102063.47;3556193;40;20317;-73
2021/07/17 11:10:09;;;;;;;7.43;3.90;;;;;;;23.05;50.42;102063.63;3567437;40;20052;-73
2021/07/17 11:12:45;;;;;;;;;;;;;;;22.79;51.87;102068.66;3568012;40;20100;-72
2021/07/17 11:15:34;;;;;;;6.25;3.92;;;;;;;23.13;50.66;102060.78;3567773;40;20021;-73
2021/07/17 11:18:21;;;;;;;6.22;3.33;;;;;;;23.22;50.14;102067.16;3569380;40;20071;-72
2021/07/17 11:20:50;;;;;;;5.85;3.53;;;;;;;23.28;50.70;102066.41;3551689;40;20136;-73
2021/07/17 11:23:19;;;;;;;6.18;3.40;;;;;;;23.36;50.09;102066.34;3557996;40;20053;-73
2021/07/17 11:25:55;;;;;;;6.80;3.90;;;;;;;23.43;50.27;102046.91;3567925;40;20037;-73
2021/07/17 11:29:04;;;;;;;6.65;3.50;;;;;;;23.47;50.04;102054.72;3568064;40;20051;-73
2021/07/17 11:31:53;;;;;;;6.18;3.53;;;;;;;23.54;49.22;102057.66;3566741;40;20310;-73
2021/07/17 11:34:38;;;;;;;6.95;3.22;;;;;;;23.63;49.35;102048.16;3567989;40;20045;-73
2021/07/17 11:37:10;;;;;;;7.05;3.53;;;;;;;23.68;49.39;102042.84;3566749;40;20378;-74
2021/07/17 11:39:41;;;;;;;5.80;2.80;;;;;;;23.72;49.47;102046.97;3566945;40;20055;-74